sensor_id;sensor_type;location;lat;lon;timestamp;pressure;altitude;pressure_sealevel;temperature
13570;BMP180;6856;51.460;7.158;2023-12-28T00:00:24;99873.00;;;12.20
13570;BMP180;6856;51.460;7.158;2023-12-28T00:02:57;99885.00;;;12.10
13570;BMP180;6856;51.460;7.158;2023-12-28T00:05:31;99883.00;;;12.20
13570;BMP180;6856;51.460;7.158;2023-12-28T00:08:06;99889.00;;;12.20
13570;BMP180;6856;51.460;7.158;2023-12-28T00:10:40;99881.00;;;12.20
13570;BMP180;6856;51.460;7.158;2023-12-28T00:13:15;99886.00;;;12.10
13570;BMP180;6856;51.460;7.158;2023-12-28T00:15:51;99887.00;;;12.10
13570;BMP180;6856;51.460;7.158;2023-12-28T00:18:25;99887.00;;;12.10
13570;BMP180;6856;51.460;7.158;2023-12-28T00:21:00;99883.00;;;12.10
13570;BMP180;6856;51.460;7.158;2023-12-28T00:23:35;99875.00;;;12.10
13570;BMP180;6856;51.460;7.158;2023-12-28T00:26:11;99889.00;;;12.10
13570;BMP180;6856;51.460;7.158;2023-12-28T00:28:47;99871.00;;;12.00
13570;BMP180;6856;51.460;7.158;2023-12-28T00:31:22;99884.00;;;12.00
13570;BMP180;6856;51.460;7.158;2023-12-28T00:33:56;99868.00;;;12.00
13570;BMP180;6856;51.460;7.158;2023-12-28T00:36:32;99871.00;;;12.00
13570;BMP180;6856;51.460;7.158;2023-12-28T00:39:06;99873.00;;;12.00
13570;BMP180;6856;51.460;7.158;2023-12-28T00:41:41;99895.00;;;12.10
13570;BMP180;6856;51.460;7.158;2023-12-28T00:44:16;99894.00;;;12.10
13570;BMP180;6856;51.460;7.158;2023-12-28T00:46:52;99887.00;;;12.10
13570;BMP180;6856;51.460;7.158;2023-12-28T00:49:26;99891.00;;;12.20
13570;BMP180;6856;51.460;7.158;2023-12-28T00:52:01;99883.00;;;12.20
13570;BMP180;6856;51.460;7.158;2023-12-28T00:54:36;99887.00;;;12.20
13570;BMP180;6856;51.460;7.158;2023-12-28T00:57:10;99891.00;;;12.20
13570;BMP180;6856;51.460;7.158;2023-12-28T00:59:44;99887.00;;;12.20
13570;BMP180;6856;51.460;7.158;2023-12-28T01:02:20;99895.00;;;12.20
13570;BMP180;6856;51.460;7.158;2023-12-28T01:04:53;99888.00;;;12.30
13570;BMP180;6856;51.460;7.158;2023-12-28T01:07:27;99891.00;;;12.30
13570;BMP180;6856;51.460;7.158;2023-12-28T01:10:02;99886.00;;;12.30
13570;BMP180;6856;51.460;7.158;2023-12-28T01:12:36;99902.00;;;12.30
13570;BMP180;6856;51.460;7.158;2023-12-28T01:15:11;99884.00;;;12.30
13570;BMP180;6856;51.460;7.158;2023-12-28T01:17:46;99885.00;;;12.30
13570;BMP180;6856;51.460;7.158;2023-12-28T01:20:20;99908.00;;;12.40
13570;BMP180;6856;51.460;7.158;2023-12-28T01:22:54;99909.00;;;12.40
13570;BMP180;6856;51.460;7.158;2023-12-28T01:25:28;99905.00;;;12.40
13570;BMP180;6856;51.460;7.158;2023-12-28T01:28:02;99914.00;;;12.40
13570;BMP180;6856;51.460;7.158;2023-12-28T01:30:38;99934.00;;;12.40
13570;BMP180;6856;51.460;7.158;2023-12-28T01:33:14;99943.00;;;12.50
13570;BMP180;6856;51.460;7.158;2023-12-28T01:35:48;99931.00;;;12.50
13570;BMP180;6856;51.460;7.158;2023-12-28T01:38:22;99935.00;;;12.50
13570;BMP180;6856;51.460;7.158;2023-12-28T01:40:56;99925.00;;;12.50
13570;BMP180;6856;51.460;7.158;2023-12-28T01:43:30;99917.00;;;12.60
13570;BMP180;6856;51.460;7.158;2023-12-28T01:46:08;99925.00;;;12.60
13570;BMP180;6856;51.460;7.158;2023-12-28T01:48:49;99939.00;;;12.60
13570;BMP180;6856;51.460;7.158;2023-12-28T01:51:24;99926.00;;;12.60
13570;BMP180;6856;51.460;7.158;2023-12-28T01:53:59;99923.00;;;12.70
13570;BMP180;6856;51.460;7.158;2023-12-28T01:56:35;99928.00;;;12.70
13570;BMP180;6856;51.460;7.158;2023-12-28T01:59:10;99938.00;;;12.70
13570;BMP180;6856;51.460;7.158;2023-12-28T02:01:44;99937.00;;;12.70
13570;BMP180;6856;51.460;7.158;2023-12-28T02:04:23;99931.00;;;12.70
13570;BMP180;6856;51.460;7.158;2023-12-28T02:07:01;99934.00;;;12.80
13570;BMP180;6856;51.460;7.158;2023-12-28T02:09:35;99937.00;;;12.80
13570;BMP180;6856;51.460;7.158;2023-12-28T02:12:09;99935.00;;;12.80
13570;BMP180;6856;51.460;7.158;2023-12-28T02:14:44;99941.00;;;12.90
13570;BMP180;6856;51.460;7.158;2023-12-28T02:17:23;99951.00;;;12.90
13570;BMP180;6856;51.460;7.158;2023-12-28T02:20:02;99956.00;;;12.90
13570;BMP180;6856;51.460;7.158;2023-12-28T02:22:39;99950.00;;;12.90
13570;BMP180;6856;51.460;7.158;2023-12-28T02:25:15;99949.00;;;12.90
13570;BMP180;6856;51.460;7.158;2023-12-28T02:27:49;99941.00;;;12.90
13570;BMP180;6856;51.460;7.158;2023-12-28T02:30:24;99947.00;;;12.90
13570;BMP180;6856;51.460;7.158;2023-12-28T02:33:09;99956.00;;;12.90
13570;BMP180;6856;51.460;7.158;2023-12-28T02:35:51;99955.00;;;12.90
13570;BMP180;6856;51.460;7.158;2023-12-28T02:38:29;99954.00;;;12.90
13570;BMP180;6856;51.460;7.158;2023-12-28T02:41:08;99963.00;;;13.00
13570;BMP180;6856;51.460;7.158;2023-12-28T02:43:43;99955.00;;;13.00
13570;BMP180;6856;51.460;7.158;2023-12-28T02:46:17;99956.00;;;13.00
13570;BMP180;6856;51.460;7.158;2023-12-28T02:48:51;99945.00;;;13.00
13570;BMP180;6856;51.460;7.158;2023-12-28T02:51:29;99963.00;;;13.00
13570;BMP180;6856;51.460;7.158;2023-12-28T02:54:04;99954.00;;;13.00
13570;BMP180;6856;51.460;7.158;2023-12-28T02:56:40;99947.00;;;13.00
13570;BMP180;6856;51.460;7.158;2023-12-28T02:59:14;99936.00;;;13.00
13570;BMP180;6856;51.460;7.158;2023-12-28T03:01:47;99928.00;;;13.00
13570;BMP180;6856;51.460;7.158;2023-12-28T03:04:24;99916.00;;;13.00
13570;BMP180;6856;51.460;7.158;2023-12-28T03:06:58;99922.00;;;13.00
13570;BMP180;6856;51.460;7.158;2023-12-28T03:09:32;99923.00;;;13.00
13570;BMP180;6856;51.460;7.158;2023-12-28T03:12:09;99931.00;;;13.00
13570;BMP180;6856;51.460;7.158;2023-12-28T03:14:44;99941.00;;;13.00
13570;BMP180;6856;51.460;7.158;2023-12-28T03:17:18;99933.00;;;13.00
13570;BMP180;6856;51.460;7.158;2023-12-28T03:19:53;99939.00;;;13.00
13570;BMP180;6856;51.460;7.158;2023-12-28T03:22:27;99941.00;;;13.10
13570;BMP180;6856;51.460;7.158;2023-12-28T03:25:01;99922.00;;;13.10
13570;BMP180;6856;51.460;7.158;2023-12-28T03:27:37;99939.00;;;13.00
13570;BMP180;6856;51.460;7.158;2023-12-28T03:30:12;99939.00;;;13.10
13570;BMP180;6856;51.460;7.158;2023-12-28T03:32:46;99930.00;;;13.10
13570;BMP180;6856;51.460;7.158;2023-12-28T03:35:20;99937.00;;;13.10
13570;BMP180;6856;51.460;7.158;2023-12-28T03:37:55;99925.00;;;13.10
13570;BMP180;6856;51.460;7.158;2023-12-28T03:40:30;99932.00;;;13.10
13570;BMP180;6856;51.460;7.158;2023-12-28T03:43:07;99930.00;;;13.10
13570;BMP180;6856;51.460;7.158;2023-12-28T03:45:41;99932.00;;;13.10
13570;BMP180;6856;51.460;7.158;2023-12-28T03:48:15;99930.00;;;13.10
13570;BMP180;6856;51.460;7.158;2023-12-28T03:50:50;99931.00;;;13.10
13570;BMP180;6856;51.460;7.158;2023-12-28T03:53:25;99922.00;;;13.10
13570;BMP180;6856;51.460;7.158;2023-12-28T03:55:59;99925.00;;;13.10
13570;BMP180;6856;51.460;7.158;2023-12-28T03:58:34;99907.00;;;13.20
13570;BMP180;6856;51.460;7.158;2023-12-28T04:01:10;99926.00;;;13.20
13570;BMP180;6856;51.460;7.158;2023-12-28T04:03:45;99930.00;;;13.20
13570;BMP180;6856;51.460;7.158;2023-12-28T04:06:19;99933.00;;;13.20
13570;BMP180;6856;51.460;7.158;2023-12-28T04:08:53;99915.00;;;13.20
13570;BMP180;6856;51.460;7.158;2023-12-28T04:11:26;99901.00;;;13.20
13570;BMP180;6856;51.460;7.158;2023-12-28T04:14:02;99919.00;;;13.20
13570;BMP180;6856;51.460;7.158;2023-12-28T04:16:36;99904.00;;;13.20
13570;BMP180;6856;51.460;7.158;2023-12-28T04:19:11;99918.00;;;13.30
13570;BMP180;6856;51.460;7.158;2023-12-28T04:21:50;99899.00;;;13.30
13570;BMP180;6856;51.460;7.158;2023-12-28T04:24:23;99900.00;;;13.30
13570;BMP180;6856;51.460;7.158;2023-12-28T04:27:00;99912.00;;;13.30
13570;BMP180;6856;51.460;7.158;2023-12-28T04:29:37;99905.00;;;13.30
13570;BMP180;6856;51.460;7.158;2023-12-28T04:32:11;99922.00;;;13.30
13570;BMP180;6856;51.460;7.158;2023-12-28T04:34:44;99908.00;;;13.30
13570;BMP180;6856;51.460;7.158;2023-12-28T04:37:18;99920.00;;;13.40
13570;BMP180;6856;51.460;7.158;2023-12-28T04:39:53;99920.00;;;13.40
13570;BMP180;6856;51.460;7.158;2023-12-28T04:42:28;99925.00;;;13.40
13570;BMP180;6856;51.460;7.158;2023-12-28T04:45:07;99923.00;;;13.40
13570;BMP180;6856;51.460;7.158;2023-12-28T04:47:42;99919.00;;;13.40
13570;BMP180;6856;51.460;7.158;2023-12-28T04:50:17;99934.00;;;13.40
13570;BMP180;6856;51.460;7.158;2023-12-28T04:52:51;99927.00;;;13.40
13570;BMP180;6856;51.460;7.158;2023-12-28T04:55:24;99914.00;;;13.50
13570;BMP180;6856;51.460;7.158;2023-12-28T04:57:58;99904.00;;;13.50
13570;BMP180;6856;51.460;7.158;2023-12-28T05:00:34;99917.00;;;13.50
13570;BMP180;6856;51.460;7.158;2023-12-28T05:03:08;99927.00;;;13.50
13570;BMP180;6856;51.460;7.158;2023-12-28T05:05:43;99923.00;;;13.50
13570;BMP180;6856;51.460;7.158;2023-12-28T05:08:18;99927.00;;;13.50
13570;BMP180;6856;51.460;7.158;2023-12-28T05:10:53;99923.00;;;13.60
13570;BMP180;6856;51.460;7.158;2023-12-28T05:13:26;99934.00;;;13.60
13570;BMP180;6856;51.460;7.158;2023-12-28T05:16:03;99950.00;;;13.60
13570;BMP180;6856;51.460;7.158;2023-12-28T05:18:37;99925.00;;;13.60
13570;BMP180;6856;51.460;7.158;2023-12-28T05:21:13;99954.00;;;13.50
13570;BMP180;6856;51.460;7.158;2023-12-28T05:23:47;99950.00;;;13.60
13570;BMP180;6856;51.460;7.158;2023-12-28T05:26:21;99962.00;;;13.60
13570;BMP180;6856;51.460;7.158;2023-12-28T05:28:57;99961.00;;;13.60
13570;BMP180;6856;51.460;7.158;2023-12-28T05:31:34;99956.00;;;13.60
13570;BMP180;6856;51.460;7.158;2023-12-28T05:34:09;99952.00;;;13.60
13570;BMP180;6856;51.460;7.158;2023-12-28T05:36:43;99968.00;;;13.60
13570;BMP180;6856;51.460;7.158;2023-12-28T05:39:18;99970.00;;;13.60
13570;BMP180;6856;51.460;7.158;2023-12-28T05:41:54;99968.00;;;13.60
13570;BMP180;6856;51.460;7.158;2023-12-28T05:44:28;99965.00;;;13.60
13570;BMP180;6856;51.460;7.158;2023-12-28T05:47:07;99973.00;;;13.60
13570;BMP180;6856;51.460;7.158;2023-12-28T05:49:41;99969.00;;;13.60
13570;BMP180;6856;51.460;7.158;2023-12-28T05:52:15;99989.00;;;13.60
13570;BMP180;6856;51.460;7.158;2023-12-28T05:54:51;99976.00;;;13.60
13570;BMP180;6856;51.460;7.158;2023-12-28T05:57:25;99988.00;;;13.60
13570;BMP180;6856;51.460;7.158;2023-12-28T06:00:08;99976.00;;;13.60
13570;BMP180;6856;51.460;7.158;2023-12-28T06:02:44;99981.00;;;13.60
13570;BMP180;6856;51.460;7.158;2023-12-28T06:05:24;99972.00;;;13.60
13570;BMP180;6856;51.460;7.158;2023-12-28T06:07:58;99990.00;;;13.60
13570;BMP180;6856;51.460;7.158;2023-12-28T06:10:33;99994.00;;;13.60
13570;BMP180;6856;51.460;7.158;2023-12-28T06:13:07;100000.00;;;13.60
13570;BMP180;6856;51.460;7.158;2023-12-28T06:15:41;100001.00;;;13.60
13570;BMP180;6856;51.460;7.158;2023-12-28T06:18:19;99993.00;;;13.60
13570;BMP180;6856;51.460;7.158;2023-12-28T06:20:53;100000.00;;;13.60
13570;BMP180;6856;51.460;7.158;2023-12-28T06:23:27;100007.00;;;13.60
13570;BMP180;6856;51.460;7.158;2023-12-28T06:26:05;100003.00;;;13.60
13570;BMP180;6856;51.460;7.158;2023-12-28T06:28:40;99998.00;;;13.60
13570;BMP180;6856;51.460;7.158;2023-12-28T06:31:15;100002.00;;;13.60
13570;BMP180;6856;51.460;7.158;2023-12-28T06:33:50;99997.00;;;13.60
13570;BMP180;6856;51.460;7.158;2023-12-28T06:36:24;100003.00;;;13.60
13570;BMP180;6856;51.460;7.158;2023-12-28T06:38:59;100024.00;;;13.60
13570;BMP180;6856;51.460;7.158;2023-12-28T06:41:37;100019.00;;;13.60
13570;BMP180;6856;51.460;7.158;2023-12-28T06:44:13;100018.00;;;13.50
13570;BMP180;6856;51.460;7.158;2023-12-28T06:46:47;100021.00;;;13.50
13570;BMP180;6856;51.460;7.158;2023-12-28T06:49:22;100012.00;;;13.50
13570;BMP180;6856;51.460;7.158;2023-12-28T06:51:56;100006.00;;;13.60
13570;BMP180;6856;51.460;7.158;2023-12-28T06:54:30;99997.00;;;13.60
13570;BMP180;6856;51.460;7.158;2023-12-28T06:57:05;99987.00;;;13.50
13570;BMP180;6856;51.460;7.158;2023-12-28T06:59:38;99993.00;;;13.50
13570;BMP180;6856;51.460;7.158;2023-12-28T07:02:12;99989.00;;;13.50
13570;BMP180;6856;51.460;7.158;2023-12-28T07:04:47;99995.00;;;13.50
13570;BMP180;6856;51.460;7.158;2023-12-28T07:07:21;99987.00;;;13.50
13570;BMP180;6856;51.460;7.158;2023-12-28T07:09:55;100013.00;;;13.50
13570;BMP180;6856;51.460;7.158;2023-12-28T07:12:30;100000.00;;;13.50
13570;BMP180;6856;51.460;7.158;2023-12-28T07:15:06;100006.00;;;13.50
13570;BMP180;6856;51.460;7.158;2023-12-28T07:17:43;99993.00;;;13.50
13570;BMP180;6856;51.460;7.158;2023-12-28T07:20:19;99982.00;;;13.50
13570;BMP180;6856;51.460;7.158;2023-12-28T07:22:53;99999.00;;;13.60
13570;BMP180;6856;51.460;7.158;2023-12-28T07:25:27;100002.00;;;13.60
13570;BMP180;6856;51.460;7.158;2023-12-28T07:28:00;99959.00;;;13.60
13570;BMP180;6856;51.460;7.158;2023-12-28T07:30:36;99997.00;;;13.60
13570;BMP180;6856;51.460;7.158;2023-12-28T07:33:09;100006.00;;;13.60
13570;BMP180;6856;51.460;7.158;2023-12-28T07:35:46;100004.00;;;13.60
13570;BMP180;6856;51.460;7.158;2023-12-28T07:38:19;100018.00;;;13.60
13570;BMP180;6856;51.460;7.158;2023-12-28T07:40:53;100022.00;;;13.50
13570;BMP180;6856;51.460;7.158;2023-12-28T07:43:27;100023.00;;;13.50
13570;BMP180;6856;51.460;7.158;2023-12-28T07:46:01;100025.00;;;13.50
13570;BMP180;6856;51.460;7.158;2023-12-28T07:48:35;100030.00;;;13.60
13570;BMP180;6856;51.460;7.158;2023-12-28T07:51:13;100022.00;;;13.50
13570;BMP180;6856;51.460;7.158;2023-12-28T07:53:47;100040.00;;;13.50
13570;BMP180;6856;51.460;7.158;2023-12-28T07:56:21;100045.00;;;13.60
13570;BMP180;6856;51.460;7.158;2023-12-28T07:58:55;100056.00;;;13.60
13570;BMP180;6856;51.460;7.158;2023-12-28T08:01:29;100064.00;;;13.60
13570;BMP180;6856;51.460;7.158;2023-12-28T08:04:05;100065.00;;;13.60
13570;BMP180;6856;51.460;7.158;2023-12-28T08:06:41;100068.00;;;13.60
13570;BMP180;6856;51.460;7.158;2023-12-28T08:09:16;100073.00;;;13.60
13570;BMP180;6856;51.460;7.158;2023-12-28T08:11:50;100064.00;;;13.60
13570;BMP180;6856;51.460;7.158;2023-12-28T08:14:25;100076.00;;;13.60
13570;BMP180;6856;51.460;7.158;2023-12-28T08:16:59;100079.00;;;13.60
13570;BMP180;6856;51.460;7.158;2023-12-28T08:19:36;100074.00;;;13.60
13570;BMP180;6856;51.460;7.158;2023-12-28T08:22:11;100082.00;;;13.70
13570;BMP180;6856;51.460;7.158;2023-12-28T08:24:45;100086.00;;;13.70
13570;BMP180;6856;51.460;7.158;2023-12-28T08:27:20;100085.00;;;13.70
13570;BMP180;6856;51.460;7.158;2023-12-28T08:29:56;100083.00;;;13.70
13570;BMP180;6856;51.460;7.158;2023-12-28T08:32:31;100084.00;;;13.70
13570;BMP180;6856;51.460;7.158;2023-12-28T08:35:06;100080.00;;;13.70
13570;BMP180;6856;51.460;7.158;2023-12-28T08:37:43;100067.00;;;13.70
13570;BMP180;6856;51.460;7.158;2023-12-28T08:40:18;100094.00;;;13.70
13570;BMP180;6856;51.460;7.158;2023-12-28T08:42:52;100104.00;;;13.80
13570;BMP180;6856;51.460;7.158;2023-12-28T08:45:27;100095.00;;;13.80
13570;BMP180;6856;51.460;7.158;2023-12-28T08:48:03;100098.00;;;13.80
13570;BMP180;6856;51.460;7.158;2023-12-28T08:50:37;100099.00;;;13.70
13570;BMP180;6856;51.460;7.158;2023-12-28T08:53:12;100088.00;;;13.70
13570;BMP180;6856;51.460;7.158;2023-12-28T08:55:46;100102.00;;;13.80
13570;BMP180;6856;51.460;7.158;2023-12-28T08:58:20;100099.00;;;13.80
13570;BMP180;6856;51.460;7.158;2023-12-28T09:00:55;100099.00;;;13.80
13570;BMP180;6856;51.460;7.158;2023-12-28T09:03:31;100103.00;;;13.80
13570;BMP180;6856;51.460;7.158;2023-12-28T09:06:06;100100.00;;;13.80
13570;BMP180;6856;51.460;7.158;2023-12-28T09:08:44;100095.00;;;13.80
13570;BMP180;6856;51.460;7.158;2023-12-28T09:11:19;100111.00;;;13.80
13570;BMP180;6856;51.460;7.158;2023-12-28T09:13:54;100093.00;;;13.80
13570;BMP180;6856;51.460;7.158;2023-12-28T09:16:28;100102.00;;;13.80
13570;BMP180;6856;51.460;7.158;2023-12-28T09:19:04;100102.00;;;13.80
13570;BMP180;6856;51.460;7.158;2023-12-28T09:21:38;100099.00;;;13.80
13570;BMP180;6856;51.460;7.158;2023-12-28T09:24:15;100098.00;;;13.90
13570;BMP180;6856;51.460;7.158;2023-12-28T09:26:51;100122.00;;;13.90
13570;BMP180;6856;51.460;7.158;2023-12-28T09:29:25;100110.00;;;13.90
13570;BMP180;6856;51.460;7.158;2023-12-28T09:32:01;100120.00;;;13.90
13570;BMP180;6856;51.460;7.158;2023-12-28T09:34:36;100126.00;;;13.90
13570;BMP180;6856;51.460;7.158;2023-12-28T09:37:10;100114.00;;;13.90
13570;BMP180;6856;51.460;7.158;2023-12-28T09:39:47;100131.00;;;13.90
13570;BMP180;6856;51.460;7.158;2023-12-28T09:42:26;100115.00;;;13.90
13570;BMP180;6856;51.460;7.158;2023-12-28T09:45:03;100112.00;;;13.90
13570;BMP180;6856;51.460;7.158;2023-12-28T09:47:39;100112.00;;;13.90
13570;BMP180;6856;51.460;7.158;2023-12-28T09:50:17;100107.00;;;13.90
13570;BMP180;6856;51.460;7.158;2023-12-28T09:52:51;100110.00;;;13.90
13570;BMP180;6856;51.460;7.158;2023-12-28T09:55:29;100102.00;;;13.90
13570;BMP180;6856;51.460;7.158;2023-12-28T09:58:05;100094.00;;;13.90
13570;BMP180;6856;51.460;7.158;2023-12-28T10:00:39;100107.00;;;14.00
13570;BMP180;6856;51.460;7.158;2023-12-28T10:03:17;100114.00;;;13.90
13570;BMP180;6856;51.460;7.158;2023-12-28T10:05:51;100102.00;;;14.00
13570;BMP180;6856;51.460;7.158;2023-12-28T10:08:24;100109.00;;;14.00
13570;BMP180;6856;51.460;7.158;2023-12-28T10:10:59;100101.00;;;14.00
13570;BMP180;6856;51.460;7.158;2023-12-28T10:13:33;100107.00;;;14.00
13570;BMP180;6856;51.460;7.158;2023-12-28T10:16:09;100113.00;;;14.00
13570;BMP180;6856;51.460;7.158;2023-12-28T10:18:44;100089.00;;;14.00
13570;BMP180;6856;51.460;7.158;2023-12-28T10:21:18;100099.00;;;14.00
13570;BMP180;6856;51.460;7.158;2023-12-28T10:23:53;100098.00;;;14.10
13570;BMP180;6856;51.460;7.158;2023-12-28T10:26:29;100106.00;;;14.10
13570;BMP180;6856;51.460;7.158;2023-12-28T10:29:07;100093.00;;;14.10
13570;BMP180;6856;51.460;7.158;2023-12-28T10:31:45;100106.00;;;14.10
13570;BMP180;6856;51.460;7.158;2023-12-28T10:34:23;100096.00;;;14.10
13570;BMP180;6856;51.460;7.158;2023-12-28T10:36:59;100104.00;;;14.20
13570;BMP180;6856;51.460;7.158;2023-12-28T10:39:36;100113.00;;;14.10
13570;BMP180;6856;51.460;7.158;2023-12-28T10:42:18;100090.00;;;14.10
13570;BMP180;6856;51.460;7.158;2023-12-28T10:45:06;100094.00;;;14.10
13570;BMP180;6856;51.460;7.158;2023-12-28T10:47:54;100095.00;;;14.10
13570;BMP180;6856;51.460;7.158;2023-12-28T10:50:38;100090.00;;;14.20
13570;BMP180;6856;51.460;7.158;2023-12-28T10:53:37;100081.00;;;14.20
13570;BMP180;6856;51.460;7.158;2023-12-28T10:56:33;100067.00;;;14.20
13570;BMP180;6856;51.460;7.158;2023-12-28T10:59:23;100084.00;;;14.20
13570;BMP180;6856;51.460;7.158;2023-12-28T11:02:01;100076.00;;;14.20
13570;BMP180;6856;51.460;7.158;2023-12-28T11:04:44;100069.00;;;14.20
13570;BMP180;6856;51.460;7.158;2023-12-28T11:07:21;100079.00;;;14.20
13570;BMP180;6856;51.460;7.158;2023-12-28T11:09:55;100087.00;;;14.30
13570;BMP180;6856;51.460;7.158;2023-12-28T11:12:29;100083.00;;;14.30
13570;BMP180;6856;51.460;7.158;2023-12-28T11:15:10;100083.00;;;14.30
13570;BMP180;6856;51.460;7.158;2023-12-28T11:17:44;100095.00;;;14.30
13570;BMP180;6856;51.460;7.158;2023-12-28T11:20:18;100080.00;;;14.40
13570;BMP180;6856;51.460;7.158;2023-12-28T11:22:52;100084.00;;;14.40
13570;BMP180;6856;51.460;7.158;2023-12-28T11:25:31;100094.00;;;14.40
13570;BMP180;6856;51.460;7.158;2023-12-28T11:28:10;100077.00;;;14.40
13570;BMP180;6856;51.460;7.158;2023-12-28T11:30:47;100088.00;;;14.40
13570;BMP180;6856;51.460;7.158;2023-12-28T11:33:30;100069.00;;;14.40
13570;BMP180;6856;51.460;7.158;2023-12-28T11:36:08;100079.00;;;14.40
13570;BMP180;6856;51.460;7.158;2023-12-28T11:38:43;100075.00;;;14.50
13570;BMP180;6856;51.460;7.158;2023-12-28T11:41:20;100041.00;;;14.50
13570;BMP180;6856;51.460;7.158;2023-12-28T11:43:54;100066.00;;;14.50
13570;BMP180;6856;51.460;7.158;2023-12-28T11:46:31;100082.00;;;14.50
13570;BMP180;6856;51.460;7.158;2023-12-28T11:49:07;100068.00;;;14.50
13570;BMP180;6856;51.460;7.158;2023-12-28T11:51:54;100063.00;;;14.50
13570;BMP180;6856;51.460;7.158;2023-12-28T11:54:29;100069.00;;;14.60
13570;BMP180;6856;51.460;7.158;2023-12-28T11:57:03;100064.00;;;14.60
13570;BMP180;6856;51.460;7.158;2023-12-28T11:59:37;100055.00;;;14.60
13570;BMP180;6856;51.460;7.158;2023-12-28T12:02:14;100067.00;;;14.70
13570;BMP180;6856;51.460;7.158;2023-12-28T12:04:48;100064.00;;;14.70
13570;BMP180;6856;51.460;7.158;2023-12-28T12:07:29;100047.00;;;14.70
13570;BMP180;6856;51.460;7.158;2023-12-28T12:10:04;100053.00;;;14.70
13570;BMP180;6856;51.460;7.158;2023-12-28T12:12:38;100040.00;;;14.70
13570;BMP180;6856;51.460;7.158;2023-12-28T12:15:14;100051.00;;;14.70
13570;BMP180;6856;51.460;7.158;2023-12-28T12:17:52;100044.00;;;14.70
13570;BMP180;6856;51.460;7.158;2023-12-28T12:20:27;100038.00;;;14.70
13570;BMP180;6856;51.460;7.158;2023-12-28T12:23:02;100037.00;;;14.70
13570;BMP180;6856;51.460;7.158;2023-12-28T12:25:37;100032.00;;;14.70
13570;BMP180;6856;51.460;7.158;2023-12-28T12:28:12;100026.00;;;14.70
13570;BMP180;6856;51.460;7.158;2023-12-28T12:30:55;100027.00;;;14.70
13570;BMP180;6856;51.460;7.158;2023-12-28T12:33:35;100032.00;;;14.80
13570;BMP180;6856;51.460;7.158;2023-12-28T12:36:10;100029.00;;;14.80
13570;BMP180;6856;51.460;7.158;2023-12-28T12:38:44;100012.00;;;14.80
13570;BMP180;6856;51.460;7.158;2023-12-28T12:41:20;100021.00;;;14.80
13570;BMP180;6856;51.460;7.158;2023-12-28T12:43:54;100016.00;;;14.80
13570;BMP180;6856;51.460;7.158;2023-12-28T12:46:32;100021.00;;;14.80
13570;BMP180;6856;51.460;7.158;2023-12-28T12:49:08;100019.00;;;14.80
13570;BMP180;6856;51.460;7.158;2023-12-28T12:51:45;100024.00;;;14.80
13570;BMP180;6856;51.460;7.158;2023-12-28T12:54:19;100018.00;;;14.80
13570;BMP180;6856;51.460;7.158;2023-12-28T12:56:55;100022.00;;;14.80
13570;BMP180;6856;51.460;7.158;2023-12-28T12:59:30;100010.00;;;14.80
13570;BMP180;6856;51.460;7.158;2023-12-28T13:02:04;100020.00;;;14.90
13570;BMP180;6856;51.460;7.158;2023-12-28T13:04:42;100019.00;;;14.80
13570;BMP180;6856;51.460;7.158;2023-12-28T13:07:17;100023.00;;;14.80
13570;BMP180;6856;51.460;7.158;2023-12-28T13:09:51;100021.00;;;14.80
13570;BMP180;6856;51.460;7.158;2023-12-28T13:12:25;100022.00;;;14.80
13570;BMP180;6856;51.460;7.158;2023-12-28T13:14:59;100022.00;;;14.80
13570;BMP180;6856;51.460;7.158;2023-12-28T13:17:33;100018.00;;;14.80
13570;BMP180;6856;51.460;7.158;2023-12-28T13:20:10;100026.00;;;14.90
13570;BMP180;6856;51.460;7.158;2023-12-28T13:22:45;100019.00;;;14.90
13570;BMP180;6856;51.460;7.158;2023-12-28T13:25:21;100001.00;;;14.90
13570;BMP180;6856;51.460;7.158;2023-12-28T13:27:55;100019.00;;;14.90
13570;BMP180;6856;51.460;7.158;2023-12-28T13:30:29;100022.00;;;14.90
13570;BMP180;6856;51.460;7.158;2023-12-28T13:33:05;100015.00;;;14.90
13570;BMP180;6856;51.460;7.158;2023-12-28T13:35:40;100007.00;;;14.90
13570;BMP180;6856;51.460;7.158;2023-12-28T13:38:14;100006.00;;;14.90
13570;BMP180;6856;51.460;7.158;2023-12-28T13:40:48;100012.00;;;14.90
13570;BMP180;6856;51.460;7.158;2023-12-28T13:43:22;100007.00;;;14.90
13570;BMP180;6856;51.460;7.158;2023-12-28T13:45:56;100007.00;;;14.90
13570;BMP180;6856;51.460;7.158;2023-12-28T13:48:31;100005.00;;;14.90
13570;BMP180;6856;51.460;7.158;2023-12-28T13:51:08;100003.00;;;14.90
13570;BMP180;6856;51.460;7.158;2023-12-28T13:53:43;99999.00;;;14.90
13570;BMP180;6856;51.460;7.158;2023-12-28T13:56:16;100000.00;;;14.90
13570;BMP180;6856;51.460;7.158;2023-12-28T13:58:50;99986.00;;;14.90
13570;BMP180;6856;51.460;7.158;2023-12-28T14:01:24;99982.00;;;14.90
13570;BMP180;6856;51.460;7.158;2023-12-28T14:03:58;99993.00;;;14.90
13570;BMP180;6856;51.460;7.158;2023-12-28T14:06:34;99984.00;;;14.90
13570;BMP180;6856;51.460;7.158;2023-12-28T14:09:13;99984.00;;;14.90
13570;BMP180;6856;51.460;7.158;2023-12-28T14:11:52;99975.00;;;14.90
13570;BMP180;6856;51.460;7.158;2023-12-28T14:14:26;99992.00;;;14.80
13570;BMP180;6856;51.460;7.158;2023-12-28T14:17:00;99985.00;;;14.80
13570;BMP180;6856;51.460;7.158;2023-12-28T14:19:36;99984.00;;;14.80
13570;BMP180;6856;51.460;7.158;2023-12-28T14:22:13;99981.00;;;14.80
13570;BMP180;6856;51.460;7.158;2023-12-28T14:24:47;99994.00;;;14.80
13570;BMP180;6856;51.460;7.158;2023-12-28T14:27:23;99993.00;;;14.80
13570;BMP180;6856;51.460;7.158;2023-12-28T14:29:57;99990.00;;;14.80
13570;BMP180;6856;51.460;7.158;2023-12-28T14:32:31;99991.00;;;14.70
13570;BMP180;6856;51.460;7.158;2023-12-28T14:35:07;100004.00;;;14.70
13570;BMP180;6856;51.460;7.158;2023-12-28T14:37:43;99994.00;;;14.70
13570;BMP180;6856;51.460;7.158;2023-12-28T14:40:17;99985.00;;;14.70
13570;BMP180;6856;51.460;7.158;2023-12-28T14:42:51;99989.00;;;14.70
13570;BMP180;6856;51.460;7.158;2023-12-28T14:45:25;99979.00;;;14.70
13570;BMP180;6856;51.460;7.158;2023-12-28T14:47:59;99976.00;;;14.70
13570;BMP180;6856;51.460;7.158;2023-12-28T14:50:34;99985.00;;;14.70
13570;BMP180;6856;51.460;7.158;2023-12-28T14:53:09;99977.00;;;14.70
13570;BMP180;6856;51.460;7.158;2023-12-28T14:55:43;99994.00;;;14.70
13570;BMP180;6856;51.460;7.158;2023-12-28T14:58:17;99993.00;;;14.70
13570;BMP180;6856;51.460;7.158;2023-12-28T15:00:51;99981.00;;;14.70
13570;BMP180;6856;51.460;7.158;2023-12-28T15:03:27;99978.00;;;14.70